createdAt,value
2022-08-08T00:02:31.667Z,11.10
2022-08-08T00:07:38.438Z,11.15
2022-08-08T00:12:56.793Z,10.87
2022-08-08T00:18:05.069Z,10.85
2022-08-08T00:23:14.770Z,11.06
2022-08-08T00:28:35.443Z,10.90
2022-08-08T00:34:17.872Z,10.70
2022-08-08T00:40:43.785Z,10.77
2022-08-08T00:45:21.727Z,10.66
2022-08-08T00:51:18.251Z,10.65
2022-08-08T00:57:03.258Z,10.64
2022-08-08T01:03:59.285Z,10.58
2022-08-08T01:08:38.985Z,10.26
2022-08-08T01:14:53.468Z,10.23
2022-08-08T01:20:28.960Z,10.32
2022-08-08T01:26:11.198Z,10.27
2022-08-08T01:32:15.007Z,10.22
2022-08-08T01:37:59.129Z,10.23
2022-08-08T01:43:34.655Z,10.14
2022-08-08T01:48:53.704Z,9.95
2022-08-08T01:55:27.112Z,9.83
2022-08-08T02:00:03.076Z,9.82
2022-08-08T02:05:58.704Z,9.73
2022-08-08T02:11:23.591Z,9.63
2022-08-08T02:16:38.807Z,9.58
2022-08-08T02:22:13.242Z,9.44
2022-08-08T02:27:25.681Z,9.30
2022-08-08T02:33:11.008Z,9.35
2022-08-08T02:38:32.836Z,9.24
2022-08-08T02:44:36.933Z,9.22
2022-08-08T02:50:17.646Z,9.07
2022-08-08T02:56:01.716Z,8.99
2022-08-08T03:01:50.167Z,9.14
2022-08-08T03:07:41.341Z,8.91
2022-08-08T03:15:56.482Z,8.87
2022-08-08T03:19:26.294Z,9.10
2022-08-08T03:24:33.499Z,8.83
2022-08-08T03:29:56.030Z,8.99
2022-08-08T03:35:02.770Z,8.86
2022-08-08T03:40:10.983Z,8.84
2022-08-08T03:46:03.202Z,8.79
2022-08-08T03:50:58.016Z,8.70
2022-08-08T03:56:09.660Z,8.58
2022-08-08T04:01:23.776Z,8.50
2022-08-08T04:06:32.578Z,8.54
2022-08-08T04:11:48.437Z,8.80
2022-08-08T04:17:46.585Z,8.80
2022-08-08T04:22:46.571Z,8.81
2022-08-08T04:28:03.262Z,8.74
2022-08-08T04:33:21.387Z,8.71
2022-08-08T04:38:26.640Z,8.76
2022-08-08T04:43:45.371Z,8.86
2022-08-08T04:48:55.243Z,9.04
2022-08-08T04:54:39.316Z,9.06
2022-08-08T04:59:29.846Z,9.20
2022-08-08T05:04:36.117Z,9.44
2022-08-08T05:09:41.041Z,9.53
2022-08-08T05:14:47.259Z,9.68
2022-08-08T05:20:06.204Z,9.76
2022-08-08T05:25:21.258Z,9.92
2022-08-08T05:30:28.248Z,10.11
2022-08-08T05:35:35.828Z,10.28
2022-08-08T05:40:48.970Z,10.90
2022-08-08T05:46:03.724Z,11.45
2022-08-08T05:51:15.647Z,11.79
2022-08-08T05:56:23.889Z,12.26
2022-08-08T06:01:56.656Z,12.69
2022-08-08T06:07:01.560Z,13.61
2022-08-08T06:12:08.140Z,14.92
2022-08-08T06:17:21.102Z,16.46
2022-08-08T06:22:38.259Z,17.45
2022-08-08T06:27:55.164Z,19.07
2022-08-08T06:33:09.316Z,20.17
2022-08-08T06:38:19.314Z,21.03
2022-08-08T06:43:35.650Z,21.83
2022-08-08T06:48:54.881Z,22.68
2022-08-08T06:54:01.037Z,22.93
2022-08-08T06:59:12.334Z,23.92
2022-08-08T07:04:39.755Z,24.33
2022-08-08T07:09:59.249Z,25.20
2022-08-08T07:15:23.241Z,25.85
2022-08-08T07:20:40.522Z,25.11
2022-08-08T07:25:57.134Z,25.11
2022-08-08T07:31:05.017Z,24.86
2022-08-08T07:36:12.842Z,25.58
2022-08-08T07:41:24.692Z,25.57
2022-08-08T07:46:31.152Z,24.75
2022-08-08T07:51:53.548Z,24.41
2022-08-08T07:57:17.137Z,25.03
2022-08-08T08:02:35.445Z,25.29
2022-08-08T08:07:57.823Z,25.55
2022-08-08T08:13:25.757Z,25.49
2022-08-08T08:18:55.702Z,24.72
2022-08-08T08:24:05.401Z,24.95
2022-08-08T08:29:10.156Z,24.96
2022-08-08T08:34:21.223Z,25.61
2022-08-08T08:40:00.147Z,26.31
2022-08-08T08:44:53.914Z,25.65
2022-08-08T08:49:58.499Z,24.79
2022-08-08T08:55:05.416Z,24.80
2022-08-08T09:00:15.546Z,25.61
2022-08-08T09:05:29.098Z,25.80
2022-08-08T09:10:50.944Z,26.76
2022-08-08T09:16:03.354Z,26.82
2022-08-08T09:21:59.387Z,26.30
2022-08-08T09:26:49.932Z,26.14
2022-08-08T09:32:04.233Z,26.65
2022-08-08T09:38:00.810Z,26.07
2022-08-08T09:43:16.763Z,25.96
2022-08-08T09:48:33.713Z,26.61
2022-08-08T09:54:03.360Z,25.90
2022-08-08T09:59:50.285Z,26.63
2022-08-08T10:04:47.379Z,27.36
2022-08-08T10:09:59.761Z,28.18
2022-08-08T10:15:18.004Z,27.34
2022-08-08T10:20:27.892Z,26.52
2022-08-08T10:25:56.308Z,26.48
2022-08-08T10:31:46.723Z,27.84
2022-08-08T10:36:49.486Z,27.53
2022-08-08T10:42:15.514Z,28.23
2022-08-08T10:47:22.160Z,28.44
2022-08-08T10:52:30.822Z,28.24
2022-08-08T10:57:45.209Z,27.75
2022-08-08T11:02:57.005Z,27.69
2022-08-08T11:08:31.567Z,28.52
2022-08-08T11:13:30.248Z,28.30
2022-08-08T11:18:39.893Z,28.07
2022-08-08T11:23:45.112Z,28.56
2022-08-08T11:29:08.493Z,27.28
2022-08-08T11:34:13.907Z,27.57
2022-08-08T11:39:36.982Z,28.50
2022-08-08T11:44:41.690Z,27.27
2022-08-08T11:49:51.911Z,27.68
2022-08-08T11:54:56.553Z,28.21
2022-08-08T12:00:05.605Z,27.63
2022-08-08T12:05:17.397Z,28.23
2022-08-08T12:10:24.259Z,27.65
2022-08-08T12:15:39.925Z,27.95
2022-08-08T12:20:48.596Z,28.27
2022-08-08T12:25:56.761Z,28.91
2022-08-08T12:31:07.177Z,28.71
2022-08-08T12:36:16.423Z,27.95
2022-08-08T12:41:34.076Z,28.46
2022-08-08T12:46:39.613Z,28.17
2022-08-08T12:51:58.516Z,27.57
2022-08-08T12:57:17.156Z,28.25
2022-08-08T13:02:28.273Z,28.07
2022-08-08T13:08:04.156Z,26.87
2022-08-08T13:13:06.231Z,27.02
2022-08-08T13:18:13.784Z,28.15
2022-08-08T13:23:35.942Z,28.30
2022-08-08T13:28:42.039Z,27.60
2022-08-08T13:33:49.870Z,28.26
2022-08-08T13:39:00.059Z,28.70
2022-08-08T13:44:04.873Z,29.24
2022-08-08T13:50:36.644Z,28.00
2022-08-08T13:54:49.442Z,28.32
2022-08-08T14:00:07.754Z,28.75
2022-08-08T14:05:20.332Z,28.23
2022-08-08T14:10:33.598Z,28.25
2022-08-08T14:15:46.242Z,28.29
2022-08-08T14:21:02.729Z,27.73
2022-08-08T14:26:10.875Z,28.16
2022-08-08T14:31:20.169Z,27.74
2022-08-08T14:36:34.750Z,27.19
2022-08-08T14:41:53.691Z,27.85
2022-08-08T14:47:00.158Z,27.84
2022-08-08T14:52:09.976Z,28.45
2022-08-08T14:57:16.876Z,27.87
2022-08-08T15:02:25.729Z,27.68
2022-08-08T15:07:39.318Z,28.27
2022-08-08T15:12:48.646Z,27.58
2022-08-08T15:17:52.589Z,27.78
2022-08-08T15:22:59.400Z,27.75
2022-08-08T15:28:33.937Z,28.05
2022-08-08T15:33:58.550Z,27.76
2022-08-08T15:38:59.397Z,27.19
2022-08-08T15:44:04.592Z,27.50
2022-08-08T15:49:08.154Z,27.53
2022-08-08T15:54:18.851Z,27.20
2022-08-08T16:00:25.265Z,27.30
2022-08-08T16:05:13.668Z,26.82
2022-08-08T16:13:27.171Z,26.56
2022-08-08T16:15:57.998Z,26.52
2022-08-08T16:21:26.678Z,26.81
2022-08-08T16:26:35.537Z,26.59
2022-08-08T16:31:48.751Z,26.18
2022-08-08T16:36:53.717Z,26.06
2022-08-08T16:42:01.273Z,26.03
2022-08-08T16:47:39.804Z,26.06
2022-08-08T16:55:07.213Z,25.86
2022-08-08T16:58:17.747Z,25.53
2022-08-08T17:03:24.513Z,25.70
2022-08-08T17:08:39.451Z,25.36
2022-08-08T17:14:00.764Z,25.49
2022-08-08T17:19:07.301Z,25.17
2022-08-08T17:24:27.059Z,25.19
2022-08-08T17:29:36.207Z,24.91
2022-08-08T17:34:54.439Z,24.83
2022-08-08T17:40:12.692Z,24.72
2022-08-08T17:45:22.983Z,24.67
2022-08-08T17:50:29.462Z,24.26
2022-08-08T17:56:03.500Z,23.85
2022-08-08T18:00:57.893Z,23.68
2022-08-08T18:06:06.785Z,23.68
2022-08-08T18:11:26.411Z,23.48
2022-08-08T18:16:33.294Z,23.51
2022-08-08T18:22:01.489Z,23.26
2022-08-08T18:27:06.179Z,22.91
2022-08-08T18:32:21.528Z,22.90
2022-08-08T18:37:34.315Z,22.75
2022-08-08T18:42:50.662Z,22.45
2022-08-08T18:47:54.806Z,22.08
2022-08-08T18:53:01.034Z,21.87
2022-08-08T18:58:07.451Z,21.55
2022-08-08T19:03:14.326Z,21.02
2022-08-08T19:08:28.483Z,20.81
2022-08-08T19:13:47.383Z,20.35
2022-08-08T19:19:01.883Z,19.89
2022-08-08T19:24:38.678Z,19.64
2022-08-08T19:29:35.623Z,19.61
2022-08-08T19:34:41.558Z,19.07
2022-08-08T19:39:51.029Z,19.05
2022-08-08T19:45:05.217Z,18.60
2022-08-08T19:50:15.079Z,18.37
2022-08-08T19:55:23.363Z,18.18
2022-08-08T20:00:32.766Z,17.81
2022-08-08T20:06:15.655Z,17.63
2022-08-08T20:11:04.285Z,17.38
2022-08-08T20:16:08.686Z,17.15
2022-08-08T20:21:14.499Z,17.11
2022-08-08T20:26:19.667Z,17.18
2022-08-08T20:31:47.295Z,17.09
2022-08-08T20:36:56.596Z,16.91
2022-08-08T20:42:01.955Z,16.77
2022-08-08T20:47:22.898Z,16.58
2022-08-08T20:52:29.826Z,16.45
2022-08-08T20:57:36.105Z,16.33
2022-08-08T21:02:52.873Z,16.28
2022-08-08T21:08:36.166Z,16.12
2022-08-08T21:13:23.452Z,16.07
2022-08-08T21:18:44.062Z,16.00
2022-08-08T21:24:03.125Z,15.78
2022-08-08T21:29:11.832Z,15.72
2022-08-08T21:34:18.724Z,15.55
2022-08-08T21:39:41.386Z,15.47
2022-08-08T21:44:59.020Z,15.28
2022-08-08T21:50:08.277Z,14.89
2022-08-08T21:56:18.546Z,14.85
2022-08-08T22:00:40.876Z,14.84
2022-08-08T22:05:45.057Z,14.72
2022-08-08T22:10:52.694Z,14.72
2022-08-08T22:16:00.795Z,14.54
2022-08-08T22:21:14.020Z,14.44
2022-08-08T22:26:28.597Z,14.36
2022-08-08T22:31:35.898Z,14.29
2022-08-08T22:36:42.626Z,14.20
2022-08-08T22:41:46.666Z,14.06
2022-08-08T22:46:54.521Z,13.93
2022-08-08T22:51:59.179Z,13.77
2022-08-08T22:57:11.683Z,13.80
2022-08-08T23:02:24.612Z,13.52
2022-08-08T23:07:49.188Z,13.57
2022-08-08T23:12:54.555Z,13.47
2022-08-08T23:18:00.119Z,13.45
2022-08-08T23:23:03.775Z,13.33
2022-08-08T23:28:07.495Z,13.21
2022-08-08T23:33:13.614Z,13.01
2022-08-08T23:38:24.217Z,13.13
2022-08-08T23:43:31.820Z,13.13
2022-08-08T23:49:07.765Z,12.88
2022-08-08T23:54:41.200Z,12.86
2022-08-08T23:59:37.888Z,12.60
